sensor_id;sensor_type;location;lat;lon;timestamp;pressure;altitude;pressure_sealevel;temperature;humidity
31771;BME280;18343;50.152;8.182;2022-08-21T00:00:08;97586.75;;;22.20;51.40
31771;BME280;18343;50.152;8.182;2022-08-21T00:02:36;97584.28;;;22.13;51.42
31771;BME280;18343;50.152;8.182;2022-08-21T00:05:05;97584.78;;;22.10;51.07
31771;BME280;18343;50.152;8.182;2022-08-21T00:07:31;97585.63;;;22.11;51.54
31771;BME280;18343;50.152;8.182;2022-08-21T00:10:02;97577.09;;;22.07;51.28
31771;BME280;18343;50.152;8.182;2022-08-21T00:12:29;97579.00;;;22.07;51.36
31771;BME280;18343;50.152;8.182;2022-08-21T00:14:57;97585.59;;;22.06;51.70
31771;BME280;18343;50.152;8.182;2022-08-21T00:17:23;97583.38;;;22.03;51.61
31771;BME280;18343;50.152;8.182;2022-08-21T00:19:50;97576.72;;;21.99;51.72
31771;BME280;18343;50.152;8.182;2022-08-21T00:22:17;97578.91;;;21.96;51.68
31771;BME280;18343;50.152;8.182;2022-08-21T00:24:45;97578.34;;;21.94;51.64
31771;BME280;18343;50.152;8.182;2022-08-21T00:27:12;97572.03;;;21.94;51.87
31771;BME280;18343;50.152;8.182;2022-08-21T00:29:38;97572.56;;;21.91;51.77
31771;BME280;18343;50.152;8.182;2022-08-21T00:32:05;97579.13;;;21.90;51.68
31771;BME280;18343;50.152;8.182;2022-08-21T00:34:32;97581.56;;;21.86;52.04
31771;BME280;18343;50.152;8.182;2022-08-21T00:36:59;97578.53;;;21.83;51.83
31771;BME280;18343;50.152;8.182;2022-08-21T00:39:26;97579.06;;;21.80;51.96
31771;BME280;18343;50.152;8.182;2022-08-21T00:41:53;97572.19;;;21.77;51.92
31771;BME280;18343;50.152;8.182;2022-08-21T00:44:20;97571.88;;;21.74;51.73
31771;BME280;18343;50.152;8.182;2022-08-21T00:46:46;97574.03;;;21.72;51.79
31771;BME280;18343;50.152;8.182;2022-08-21T00:49:14;97576.47;;;21.68;52.39
31771;BME280;18343;50.152;8.182;2022-08-21T00:51:45;97575.06;;;21.66;51.87
31771;BME280;18343;50.152;8.182;2022-08-21T00:54:15;97570.13;;;21.62;52.07
31771;BME280;18343;50.152;8.182;2022-08-21T00:56:43;97573.41;;;21.59;51.95
31771;BME280;18343;50.152;8.182;2022-08-21T00:59:11;97573.66;;;21.58;51.83
31771;BME280;18343;50.152;8.182;2022-08-21T01:01:37;97574.19;;;21.55;52.13
31771;BME280;18343;50.152;8.182;2022-08-21T01:04:04;97579.09;;;21.53;52.15
31771;BME280;18343;50.152;8.182;2022-08-21T01:06:30;97580.16;;;21.52;52.15
31771;BME280;18343;50.152;8.182;2022-08-21T01:08:58;97576.28;;;21.48;51.98
31771;BME280;18343;50.152;8.182;2022-08-21T01:11:25;97581.19;;;21.46;51.84
31771;BME280;18343;50.152;8.182;2022-08-21T01:13:52;97577.88;;;21.44;52.14
31771;BME280;18343;50.152;8.182;2022-08-21T01:16:22;97580.56;;;21.39;51.85
31771;BME280;18343;50.152;8.182;2022-08-21T01:18:50;97583.81;;;21.36;51.99
31771;BME280;18343;50.152;8.182;2022-08-21T01:21:20;97578.06;;;21.32;51.99
31771;BME280;18343;50.152;8.182;2022-08-21T01:23:49;97579.41;;;21.30;52.03
31771;BME280;18343;50.152;8.182;2022-08-21T01:26:22;97580.47;;;21.28;52.16
31771;BME280;18343;50.152;8.182;2022-08-21T01:28:55;97575.53;;;21.25;52.03
31771;BME280;18343;50.152;8.182;2022-08-21T01:31:26;97573.88;;;21.24;52.06
31771;BME280;18343;50.152;8.182;2022-08-21T01:33:54;97575.78;;;21.24;52.34
31771;BME280;18343;50.152;8.182;2022-08-21T01:36:25;97577.69;;;21.23;52.63
31771;BME280;18343;50.152;8.182;2022-08-21T01:38:54;97576.03;;;21.22;52.64
31771;BME280;18343;50.152;8.182;2022-08-21T01:41:21;97576.28;;;21.21;52.65
31771;BME280;18343;50.152;8.182;2022-08-21T01:43:48;97576.28;;;21.21;52.73
31771;BME280;18343;50.152;8.182;2022-08-21T01:46:16;97563.91;;;21.18;52.91
31771;BME280;18343;50.152;8.182;2022-08-21T01:48:43;97574.28;;;21.16;52.51
31771;BME280;18343;50.152;8.182;2022-08-21T01:51:10;97570.16;;;21.14;52.91
31771;BME280;18343;50.152;8.182;2022-08-21T01:53:38;97564.38;;;21.10;52.80
31771;BME280;18343;50.152;8.182;2022-08-21T01:56:08;97569.53;;;21.07;52.95
31771;BME280;18343;50.152;8.182;2022-08-21T01:58:36;97564.59;;;21.04;52.87
31771;BME280;18343;50.152;8.182;2022-08-21T02:01:03;97565.38;;;20.99;52.97
31771;BME280;18343;50.152;8.182;2022-08-21T02:03:30;97568.34;;;20.98;52.85
31771;BME280;18343;50.152;8.182;2022-08-21T02:05:57;97569.69;;;20.95;53.03
31771;BME280;18343;50.152;8.182;2022-08-21T02:08:24;97565.28;;;20.94;52.70
31771;BME280;18343;50.152;8.182;2022-08-21T02:10:54;97559.50;;;20.90;52.86
31771;BME280;18343;50.152;8.182;2022-08-21T02:13:21;97554.56;;;20.87;52.95
31771;BME280;18343;50.152;8.182;2022-08-21T02:15:47;97548.50;;;20.85;52.98
31771;BME280;18343;50.152;8.182;2022-08-21T02:18:14;97553.66;;;20.82;52.96
31771;BME280;18343;50.152;8.182;2022-08-21T02:20:45;97558.00;;;20.78;52.90
31771;BME280;18343;50.152;8.182;2022-08-21T02:23:13;97551.72;;;20.77;53.03
31771;BME280;18343;50.152;8.182;2022-08-21T02:25:41;97548.41;;;20.75;52.91
31771;BME280;18343;50.152;8.182;2022-08-21T02:28:12;97548.09;;;20.72;52.94
31771;BME280;18343;50.152;8.182;2022-08-21T02:30:45;97545.59;;;20.70;52.97
31771;BME280;18343;50.152;8.182;2022-08-21T02:33:13;97542.31;;;20.68;53.02
31771;BME280;18343;50.152;8.182;2022-08-21T02:35:41;97551.84;;;20.66;52.97
31771;BME280;18343;50.152;8.182;2022-08-21T02:38:12;97550.44;;;20.63;52.99
31771;BME280;18343;50.152;8.182;2022-08-21T02:40:43;97556.16;;;20.61;53.03
31771;BME280;18343;50.152;8.182;2022-08-21T02:43:11;97556.66;;;20.58;53.12
31771;BME280;18343;50.152;8.182;2022-08-21T02:45:39;97550.88;;;20.55;53.22
31771;BME280;18343;50.152;8.182;2022-08-21T02:48:08;97552.47;;;20.51;53.08
31771;BME280;18343;50.152;8.182;2022-08-21T02:50:40;97551.91;;;20.49;53.09
31771;BME280;18343;50.152;8.182;2022-08-21T02:53:09;97544.22;;;20.46;53.05
31771;BME280;18343;50.152;8.182;2022-08-21T02:55:37;97548.28;;;20.43;53.00
31771;BME280;18343;50.152;8.182;2022-08-21T02:58:07;97553.41;;;20.40;52.98
31771;BME280;18343;50.152;8.182;2022-08-21T03:00:36;97560.78;;;20.39;52.97
31771;BME280;18343;50.152;8.182;2022-08-21T03:03:04;97553.31;;;20.35;53.05
31771;BME280;18343;50.152;8.182;2022-08-21T03:05:32;97551.06;;;20.32;53.16
31771;BME280;18343;50.152;8.182;2022-08-21T03:08:00;97554.88;;;20.31;52.97
31771;BME280;18343;50.152;8.182;2022-08-21T03:10:28;97552.41;;;20.29;53.04
31771;BME280;18343;50.152;8.182;2022-08-21T03:12:56;97546.34;;;20.27;53.14
31771;BME280;18343;50.152;8.182;2022-08-21T03:15:24;97548.50;;;20.25;53.28
31771;BME280;18343;50.152;8.182;2022-08-21T03:17:52;97553.97;;;20.25;53.21
31771;BME280;18343;50.152;8.182;2022-08-21T03:20:24;97557.00;;;20.23;53.11
31771;BME280;18343;50.152;8.182;2022-08-21T03:22:52;97550.13;;;20.21;53.39
31771;BME280;18343;50.152;8.182;2022-08-21T03:25:21;97542.19;;;20.19;53.32
31771;BME280;18343;50.152;8.182;2022-08-21T03:27:48;97538.28;;;20.15;52.92
31771;BME280;18343;50.152;8.182;2022-08-21T03:30:16;97538.78;;;20.12;53.09
31771;BME280;18343;50.152;8.182;2022-08-21T03:32:43;97533.00;;;20.09;53.13
31771;BME280;18343;50.152;8.182;2022-08-21T03:35:10;97534.31;;;20.06;53.00
31771;BME280;18343;50.152;8.182;2022-08-21T03:37:37;97539.22;;;20.04;53.21
31771;BME280;18343;50.152;8.182;2022-08-21T03:40:08;97541.59;;;20.01;53.24
31771;BME280;18343;50.152;8.182;2022-08-21T03:42:35;97538.31;;;19.99;53.15
31771;BME280;18343;50.152;8.182;2022-08-21T03:45:02;97537.47;;;19.98;53.28
31771;BME280;18343;50.152;8.182;2022-08-21T03:47:29;97539.66;;;19.96;53.21
31771;BME280;18343;50.152;8.182;2022-08-21T03:49:55;97535.53;;;19.93;53.23
31771;BME280;18343;50.152;8.182;2022-08-21T03:52:23;97539.56;;;19.91;53.21
31771;BME280;18343;50.152;8.182;2022-08-21T03:54:49;97543.63;;;19.88;53.11
31771;BME280;18343;50.152;8.182;2022-08-21T03:57:16;97543.63;;;19.88;53.26
31771;BME280;18343;50.152;8.182;2022-08-21T03:59:44;97543.28;;;19.85;53.33
31771;BME280;18343;50.152;8.182;2022-08-21T04:02:11;97546.53;;;19.82;53.41
31771;BME280;18343;50.152;8.182;2022-08-21T04:04:39;97545.09;;;19.79;53.33
31771;BME280;18343;50.152;8.182;2022-08-21T04:07:06;97552.72;;;19.77;53.37
31771;BME280;18343;50.152;8.182;2022-08-21T04:09:33;97562.47;;;19.73;53.41
31771;BME280;18343;50.152;8.182;2022-08-21T04:12:00;97552.88;;;19.71;53.25
31771;BME280;18343;50.152;8.182;2022-08-21T04:14:28;97562.41;;;19.68;53.09
31771;BME280;18343;50.152;8.182;2022-08-21T04:16:54;97566.22;;;19.67;53.10
31771;BME280;18343;50.152;8.182;2022-08-21T04:19:21;97557.69;;;19.64;53.33
31771;BME280;18343;50.152;8.182;2022-08-21T04:21:48;97568.84;;;19.62;53.48
31771;BME280;18343;50.152;8.182;2022-08-21T04:24:15;97577.28;;;19.60;53.51
31771;BME280;18343;50.152;8.182;2022-08-21T04:26:43;97577.53;;;19.59;53.34
31771;BME280;18343;50.152;8.182;2022-08-21T04:29:09;97574.22;;;19.57;53.41
31771;BME280;18343;50.152;8.182;2022-08-21T04:31:36;97578.25;;;19.54;53.31
31771;BME280;18343;50.152;8.182;2022-08-21T04:34:04;97578.50;;;19.53;53.30
31771;BME280;18343;50.152;8.182;2022-08-21T04:36:31;97588.00;;;19.50;53.27
31771;BME280;18343;50.152;8.182;2022-08-21T04:38:58;97585.72;;;19.47;53.31
31771;BME280;18343;50.152;8.182;2022-08-21T04:41:25;97585.41;;;19.44;53.44
31771;BME280;18343;50.152;8.182;2022-08-21T04:43:52;97588.38;;;19.42;53.68
31771;BME280;18343;50.152;8.182;2022-08-21T04:46:21;97588.06;;;19.39;53.51
31771;BME280;18343;50.152;8.182;2022-08-21T04:48:47;97590.19;;;19.37;53.36
31771;BME280;18343;50.152;8.182;2022-08-21T04:51:17;97589.03;;;19.33;53.34
31771;BME280;18343;50.152;8.182;2022-08-21T04:53:49;97591.16;;;19.31;53.47
31771;BME280;18343;50.152;8.182;2022-08-21T04:56:22;97597.94;;;19.28;53.49
31771;BME280;18343;50.152;8.182;2022-08-21T04:58:54;97602.56;;;19.27;53.85
31771;BME280;18343;50.152;8.182;2022-08-21T05:01:24;97597.34;;;19.26;53.39
31771;BME280;18343;50.152;8.182;2022-08-21T05:03:56;97598.66;;;19.23;53.60
31771;BME280;18343;50.152;8.182;2022-08-21T05:06:25;97598.06;;;19.21;53.83
31771;BME280;18343;50.152;8.182;2022-08-21T05:08:53;97582.78;;;19.20;53.64
31771;BME280;18343;50.152;8.182;2022-08-21T05:11:22;97592.03;;;19.19;53.73
31771;BME280;18343;50.152;8.182;2022-08-21T05:13:51;97591.44;;;19.17;54.11
31771;BME280;18343;50.152;8.182;2022-08-21T05:16:19;97601.53;;;19.17;53.75
31771;BME280;18343;50.152;8.182;2022-08-21T05:18:45;97592.53;;;19.16;54.18
31771;BME280;18343;50.152;8.182;2022-08-21T05:21:15;97595.50;;;19.15;54.12
31771;BME280;18343;50.152;8.182;2022-08-21T05:23:44;97601.22;;;19.13;54.20
31771;BME280;18343;50.152;8.182;2022-08-21T05:26:11;97597.06;;;19.11;54.31
31771;BME280;18343;50.152;8.182;2022-08-21T05:28:38;97606.56;;;19.08;54.38
31771;BME280;18343;50.152;8.182;2022-08-21T05:31:04;97604.91;;;19.07;54.41
31771;BME280;18343;50.152;8.182;2022-08-21T05:33:32;97597.22;;;19.04;54.58
31771;BME280;18343;50.152;8.182;2022-08-21T05:35:59;97602.66;;;19.04;54.76
31771;BME280;18343;50.152;8.182;2022-08-21T05:38:26;97601.84;;;19.04;54.82
31771;BME280;18343;50.152;8.182;2022-08-21T05:40:54;97595.78;;;19.02;54.93
31771;BME280;18343;50.152;8.182;2022-08-21T05:43:21;97596.28;;;18.99;54.88
31771;BME280;18343;50.152;8.182;2022-08-21T05:45:48;97600.91;;;18.98;55.11
31771;BME280;18343;50.152;8.182;2022-08-21T05:48:19;97602.78;;;18.98;54.99
31771;BME280;18343;50.152;8.182;2022-08-21T05:50:48;97602.22;;;18.96;55.28
31771;BME280;18343;50.152;8.182;2022-08-21T05:53:17;97601.13;;;18.97;55.28
31771;BME280;18343;50.152;8.182;2022-08-21T05:55:44;97598.41;;;18.97;55.39
31771;BME280;18343;50.152;8.182;2022-08-21T05:58:11;97604.94;;;18.96;55.57
31771;BME280;18343;50.152;8.182;2022-08-21T06:00:38;97601.13;;;18.97;55.72
31771;BME280;18343;50.152;8.182;2022-08-21T06:03:11;97601.38;;;18.95;55.61
31771;BME280;18343;50.152;8.182;2022-08-21T06:05:38;97604.34;;;18.93;55.98
31771;BME280;18343;50.152;8.182;2022-08-21T06:08:06;97601.63;;;18.93;56.10
31771;BME280;18343;50.152;8.182;2022-08-21T06:10:32;97597.00;;;18.94;56.50
31771;BME280;18343;50.152;8.182;2022-08-21T06:12:59;97603.28;;;18.94;56.54
31771;BME280;18343;50.152;8.182;2022-08-21T06:15:26;97599.72;;;18.94;56.30
31771;BME280;18343;50.152;8.182;2022-08-21T06:17:54;97601.63;;;18.93;56.62
31771;BME280;18343;50.152;8.182;2022-08-21T06:20:22;97601.38;;;18.95;56.72
31771;BME280;18343;50.152;8.182;2022-08-21T06:22:48;97597.00;;;18.94;57.15
31771;BME280;18343;50.152;8.182;2022-08-21T06:25:16;97597.00;;;18.94;56.95
31771;BME280;18343;50.152;8.182;2022-08-21T06:27:43;97593.44;;;18.93;57.33
31771;BME280;18343;50.152;8.182;2022-08-21T06:30:11;97590.72;;;18.93;57.30
31771;BME280;18343;50.152;8.182;2022-08-21T06:32:38;97594.28;;;18.94;57.62
31771;BME280;18343;50.152;8.182;2022-08-21T06:35:06;97594.28;;;18.94;57.35
31771;BME280;18343;50.152;8.182;2022-08-21T06:37:32;97588.56;;;18.96;57.75
31771;BME280;18343;50.152;8.182;2022-08-21T06:39:59;97592.97;;;18.97;58.17
31771;BME280;18343;50.152;8.182;2022-08-21T06:42:27;97592.97;;;18.97;58.28
31771;BME280;18343;50.152;8.182;2022-08-21T06:44:54;97582.06;;;18.97;58.37
31771;BME280;18343;50.152;8.182;2022-08-21T06:47:21;97585.63;;;18.97;58.88
31771;BME280;18343;50.152;8.182;2022-08-21T06:49:47;97585.63;;;18.97;58.72
31771;BME280;18343;50.152;8.182;2022-08-21T06:52:14;97587.28;;;18.98;59.02
31771;BME280;18343;50.152;8.182;2022-08-21T06:54:41;97594.38;;;18.99;58.93
31771;BME280;18343;50.152;8.182;2022-08-21T06:57:08;97590.00;;;18.98;59.12
31771;BME280;18343;50.152;8.182;2022-08-21T06:59:35;97587.28;;;18.98;59.08
31771;BME280;18343;50.152;8.182;2022-08-21T07:02:03;97584.53;;;18.98;59.54
31771;BME280;18343;50.152;8.182;2022-08-21T07:04:29;97590.00;;;18.98;59.50
31771;BME280;18343;50.152;8.182;2022-08-21T07:06:56;97594.38;;;18.99;59.84
31771;BME280;18343;50.152;8.182;2022-08-21T07:09:23;97591.41;;;19.01;59.98
31771;BME280;18343;50.152;8.182;2022-08-21T07:11:53;97588.44;;;19.02;59.66
31771;BME280;18343;50.152;8.182;2022-08-21T07:14:20;97589.03;;;19.04;60.09
31771;BME280;18343;50.152;8.182;2022-08-21T07:16:48;97588.78;;;19.06;60.03
31771;BME280;18343;50.152;8.182;2022-08-21T07:19:15;97589.38;;;19.08;60.26
31771;BME280;18343;50.152;8.182;2022-08-21T07:21:41;97586.41;;;19.09;60.56
31771;BME280;18343;50.152;8.182;2022-08-21T07:24:08;97593.53;;;19.10;60.47
31771;BME280;18343;50.152;8.182;2022-08-21T07:26:38;97590.78;;;19.10;60.61
31771;BME280;18343;50.152;8.182;2022-08-21T07:29:09;97596.25;;;19.10;60.33
31771;BME280;18343;50.152;8.182;2022-08-21T07:31:38;97587.00;;;19.11;60.79
31771;BME280;18343;50.152;8.182;2022-08-21T07:34:17;97589.25;;;19.14;60.73
31771;BME280;18343;50.152;8.182;2022-08-21T07:36:48;97586.00;;;19.17;60.94
31771;BME280;18343;50.152;8.182;2022-08-21T07:39:24;97585.50;;;19.20;61.29
31771;BME280;18343;50.152;8.182;2022-08-21T07:42:09;97582.53;;;19.22;60.99
31771;BME280;18343;50.152;8.182;2022-08-21T07:48:20;97569.84;;;19.27;61.65
31771;BME280;18343;50.152;8.182;2022-08-21T07:50:59;97570.19;;;19.31;61.65
31771;BME280;18343;50.152;8.182;2022-08-21T07:53:31;97576.81;;;19.35;62.16
31771;BME280;18343;50.152;8.182;2022-08-21T07:56:01;97567.31;;;19.38;62.22
31771;BME280;18343;50.152;8.182;2022-08-21T07:58:37;97572.00;;;19.42;62.22
31771;BME280;18343;50.152;8.182;2022-08-21T08:01:09;97570.69;;;19.45;62.31
31771;BME280;18343;50.152;8.182;2022-08-21T08:03:39;97565.31;;;19.50;62.87
31771;BME280;18343;50.152;8.182;2022-08-21T08:06:11;97568.91;;;19.50;62.52
31771;BME280;18343;50.152;8.182;2022-08-21T08:08:56;97563.78;;;19.54;62.57
31771;BME280;18343;50.152;8.182;2022-08-21T08:11:56;97558.91;;;19.56;62.89
31771;BME280;18343;50.152;8.182;2022-08-21T08:14:28;97557.34;;;19.60;63.07
31771;BME280;18343;50.152;8.182;2022-08-21T08:16:55;97559.34;;;19.65;63.50
31771;BME280;18343;50.152;8.182;2022-08-21T08:22:40;97557.50;;;19.70;63.43
31771;BME280;18343;50.152;8.182;2022-08-21T08:25:20;97558.41;;;19.76;63.46
31771;BME280;18343;50.152;8.182;2022-08-21T08:28:13;97552.47;;;19.79;63.56
31771;BME280;18343;50.152;8.182;2022-08-21T08:30:53;97555.53;;;19.82;63.71
31771;BME280;18343;50.152;8.182;2022-08-21T08:33:35;97550.41;;;19.86;63.52
31771;BME280;18343;50.152;8.182;2022-08-21T08:37:08;97548.00;;;19.89;63.77
31771;BME280;18343;50.152;8.182;2022-08-21T08:39:52;97552.97;;;19.92;64.25
31771;BME280;18343;50.152;8.182;2022-08-21T08:43:03;97551.91;;;19.93;64.09
31771;BME280;18343;50.152;8.182;2022-08-21T08:46:25;97553.31;;;19.96;64.12
31771;BME280;18343;50.152;8.182;2022-08-21T08:49:29;97547.91;;;20.01;64.58
31771;BME280;18343;50.152;8.182;2022-08-21T08:53:22;97541.44;;;20.07;64.29
31771;BME280;18343;50.152;8.182;2022-08-21T08:56:26;97540.94;;;20.10;64.54
31771;BME280;18343;50.152;8.182;2022-08-21T09:02:41;97544.09;;;20.19;64.63
31771;BME280;18343;50.152;8.182;2022-08-21T09:06:02;97549.63;;;20.24;64.50
31771;BME280;18343;50.152;8.182;2022-08-21T09:09:28;97538.75;;;20.29;64.71
31771;BME280;18343;50.152;8.182;2022-08-21T09:12:52;97542.63;;;20.33;64.83
31771;BME280;18343;50.152;8.182;2022-08-21T09:15:53;97538.34;;;20.37;64.65
31771;BME280;18343;50.152;8.182;2022-08-21T09:18:55;97534.03;;;20.41;64.70
31771;BME280;18343;50.152;8.182;2022-08-21T09:22:26;97536.25;;;20.44;64.74
31771;BME280;18343;50.152;8.182;2022-08-21T09:25:52;97524.88;;;20.52;65.01
31771;BME280;18343;50.152;8.182;2022-08-21T09:32:17;97532.13;;;20.64;64.58
31771;BME280;18343;50.152;8.182;2022-08-21T09:35:09;97527.25;;;20.66;64.62
31771;BME280;18343;50.152;8.182;2022-08-21T09:38:51;97525.41;;;20.71;64.70
31771;BME280;18343;50.152;8.182;2022-08-21T09:41:28;97528.78;;;20.78;65.08
31771;BME280;18343;50.152;8.182;2022-08-21T09:44:03;97526.38;;;20.87;64.82
31771;BME280;18343;50.152;8.182;2022-08-21T09:46:32;97527.03;;;20.94;65.06
31771;BME280;18343;50.152;8.182;2022-08-21T09:49:06;97513.75;;;21.08;65.18
31771;BME280;18343;50.152;8.182;2022-08-21T09:51:40;97516.84;;;21.16;64.67
31771;BME280;18343;50.152;8.182;2022-08-21T09:54:26;97510.56;;;21.16;64.00
31771;BME280;18343;50.152;8.182;2022-08-21T09:57:23;97512.72;;;21.14;64.27
31771;BME280;18343;50.152;8.182;2022-08-21T10:00:26;97511.91;;;21.13;63.98
31771;BME280;18343;50.152;8.182;2022-08-21T10:03:14;97502.63;;;21.14;64.01
31771;BME280;18343;50.152;8.182;2022-08-21T10:05:58;97505.91;;;21.16;63.79
31771;BME280;18343;50.152;8.182;2022-08-21T10:08:41;97503.28;;;21.21;64.12
31771;BME280;18343;50.152;8.182;2022-08-21T10:11:14;97492.66;;;21.25;63.57
31771;BME280;18343;50.152;8.182;2022-08-21T10:13:52;97495.69;;;21.28;63.92
31771;BME280;18343;50.152;8.182;2022-08-21T10:16:44;97490.78;;;21.31;63.61
31771;BME280;18343;50.152;8.182;2022-08-21T10:19:35;97492.97;;;21.34;63.40
31771;BME280;18343;50.152;8.182;2022-08-21T10:22:18;97495.19;;;21.37;63.32
31771;BME280;18343;50.152;8.182;2022-08-21T10:24:57;97488.38;;;21.39;63.22
31771;BME280;18343;50.152;8.182;2022-08-21T10:27:56;97489.25;;;21.45;63.54
31771;BME280;18343;50.152;8.182;2022-08-21T10:30:38;97489.28;;;21.50;63.05
31771;BME280;18343;50.152;8.182;2022-08-21T10:33:31;97489.03;;;21.51;62.54
31771;BME280;18343;50.152;8.182;2022-08-21T10:36:12;97482.75;;;21.51;62.18
31771;BME280;18343;50.152;8.182;2022-08-21T10:39:05;97479.47;;;21.54;62.76
31771;BME280;18343;50.152;8.182;2022-08-21T10:41:57;97483.91;;;21.60;62.60
31771;BME280;18343;50.152;8.182;2022-08-21T10:44:39;97477.94;;;21.68;61.94
31771;BME280;18343;50.152;8.182;2022-08-21T10:47:15;97472.50;;;21.73;61.76
31771;BME280;18343;50.152;8.182;2022-08-21T10:49:57;97473.88;;;21.76;61.72
31771;BME280;18343;50.152;8.182;2022-08-21T10:52:46;97465.16;;;21.79;61.52
31771;BME280;18343;50.152;8.182;2022-08-21T10:55:34;97461.63;;;21.83;61.23
31771;BME280;18343;50.152;8.182;2022-08-21T10:58:12;97462.75;;;21.87;60.82
31771;BME280;18343;50.152;8.182;2022-08-21T11:00:46;97452.91;;;21.91;61.05
31771;BME280;18343;50.152;8.182;2022-08-21T11:03:24;97446.38;;;21.98;60.86
31771;BME280;18343;50.152;8.182;2022-08-21T11:06:00;97457.38;;;22.03;60.46
31771;BME280;18343;50.152;8.182;2022-08-21T11:08:37;97448.38;;;22.07;60.46
31771;BME280;18343;50.152;8.182;2022-08-21T11:11:11;97450.06;;;22.13;59.69
31771;BME280;18343;50.152;8.182;2022-08-21T11:13:41;97448.69;;;22.16;60.44
31771;BME280;18343;50.152;8.182;2022-08-21T11:16:21;97449.25;;;22.18;59.87
31771;BME280;18343;50.152;8.182;2022-08-21T11:18:57;97447.34;;;22.23;59.46
31771;BME280;18343;50.152;8.182;2022-08-21T11:21:36;97455.34;;;22.30;59.68
31771;BME280;18343;50.152;8.182;2022-08-21T11:24:25;97458.09;;;22.35;59.17
31771;BME280;18343;50.152;8.182;2022-08-21T11:27:04;97455.38;;;22.40;59.10
31771;BME280;18343;50.152;8.182;2022-08-21T11:29:39;97447.72;;;22.42;58.42
31771;BME280;18343;50.152;8.182;2022-08-21T11:32:49;97441.97;;;22.49;58.74
31771;BME280;18343;50.152;8.182;2022-08-21T11:35:40;97444.72;;;22.54;58.49
31771;BME280;18343;50.152;8.182;2022-08-21T11:38:27;97442.03;;;22.59;58.16
31771;BME280;18343;50.152;8.182;2022-08-21T11:41:24;97437.94;;;22.67;57.56
31771;BME280;18343;50.152;8.182;2022-08-21T11:44:10;97434.91;;;22.73;57.50
31771;BME280;18343;50.152;8.182;2022-08-21T11:46:49;97429.47;;;22.78;56.97
31771;BME280;18343;50.152;8.182;2022-08-21T11:49:40;97428.41;;;22.84;57.08
31771;BME280;18343;50.152;8.182;2022-08-21T11:52:20;97430.34;;;22.89;56.39
31771;BME280;18343;50.152;8.182;2022-08-21T11:55:05;97438.56;;;22.94;56.47
31771;BME280;18343;50.152;8.182;2022-08-21T11:57:55;97422.66;;;23.06;56.96
31771;BME280;18343;50.152;8.182;2022-08-21T12:01:09;97423.22;;;23.28;56.44
31771;BME280;18343;50.152;8.182;2022-08-21T12:04:07;97420.47;;;23.34;55.93
31771;BME280;18343;50.152;8.182;2022-08-21T12:09:59;97425.41;;;23.42;54.78
31771;BME280;18343;50.152;8.182;2022-08-21T12:12:34;97419.94;;;23.47;54.67
31771;BME280;18343;50.152;8.182;2022-08-21T12:15:24;97419.13;;;23.51;54.48
31771;BME280;18343;50.152;8.182;2022-08-21T12:18:06;97419.13;;;23.56;53.94
31771;BME280;18343;50.152;8.182;2022-08-21T12:21:02;97420.22;;;23.60;53.85
31771;BME280;18343;50.152;8.182;2022-08-21T12:23:46;97418.00;;;23.62;53.21
31771;BME280;18343;50.152;8.182;2022-08-21T12:27:00;97421.84;;;23.67;53.41
31771;BME280;18343;50.152;8.182;2022-08-21T12:29:44;97425.97;;;23.74;52.64
31771;BME280;18343;50.152;8.182;2022-08-21T12:33:18;97420.72;;;23.88;52.83
31771;BME280;18343;50.152;8.182;2022-08-21T12:35:49;97425.38;;;23.98;52.68
31771;BME280;18343;50.152;8.182;2022-08-21T12:38:26;97422.28;;;24.09;53.13
31771;BME280;18343;50.152;8.182;2022-08-21T12:41:05;97420.38;;;24.10;52.24
31771;BME280;18343;50.152;8.182;2022-08-21T12:43:38;97423.66;;;24.12;52.18
31771;BME280;18343;50.152;8.182;2022-08-21T12:46:13;97421.47;;;24.14;51.83
31771;BME280;18343;50.152;8.182;2022-08-21T12:48:47;97413.47;;;24.17;51.09
31771;BME280;18343;50.152;8.182;2022-08-21T12:51:24;97415.66;;;24.20;51.75
31771;BME280;18343;50.152;8.182;2022-08-21T12:53:55;97412.38;;;24.34;51.05
31771;BME280;18343;50.152;8.182;2022-08-21T12:56:26;97408.16;;;24.46;50.71
31771;BME280;18343;50.152;8.182;2022-08-21T12:59:03;97410.88;;;24.56;50.12
31771;BME280;18343;50.152;8.182;2022-08-21T13:01:33;97407.03;;;24.57;49.88
31771;BME280;18343;50.152;8.182;2022-08-21T13:04:08;97403.66;;;24.66;50.25
31771;BME280;18343;50.152;8.182;2022-08-21T13:06:41;97389.88;;;24.71;49.63
31771;BME280;18343;50.152;8.182;2022-08-21T13:09:22;97399.50;;;24.73;49.38
31771;BME280;18343;50.152;8.182;2022-08-21T13:11:51;97394.53;;;24.75;49.31
31771;BME280;18343;50.152;8.182;2022-08-21T13:14:28;97393.69;;;24.80;49.05
31771;BME280;18343;50.152;8.182;2022-08-21T13:16:59;97395.88;;;24.83;48.09
31771;BME280;18343;50.152;8.182;2022-08-21T13:19:29;97388.16;;;24.85;48.13
31771;BME280;18343;50.152;8.182;2022-08-21T13:21:58;97387.03;;;24.86;47.44
31771;BME280;18343;50.152;8.182;2022-08-21T13:24:28;97389.72;;;24.91;47.75
31771;BME280;18343;50.152;8.182;2022-08-21T13:26:57;97383.13;;;24.97;47.49
31771;BME280;18343;50.152;8.182;2022-08-21T13:29:34;97383.66;;;24.99;47.22
31771;BME280;18343;50.152;8.182;2022-08-21T13:32:18;97380.34;;;25.02;47.28
31771;BME280;18343;50.152;8.182;2022-08-21T13:35:07;97381.91;;;25.13;46.66
31771;BME280;18343;50.152;8.182;2022-08-21T13:37:36;97377.41;;;25.22;46.22
31771;BME280;18343;50.152;8.182;2022-08-21T13:40:10;97371.06;;;25.27;46.91
31771;BME280;18343;50.152;8.182;2022-08-21T13:42:44;97369.09;;;25.33;46.43
31771;BME280;18343;50.152;8.182;2022-08-21T13:45:20;97372.88;;;25.42;46.13
31771;BME280;18343;50.152;8.182;2022-08-21T13:47:54;97371.69;;;25.48;45.01
31771;BME280;18343;50.152;8.182;2022-08-21T13:50:26;97376.66;;;25.46;45.04
31771;BME280;18343;50.152;8.182;2022-08-21T13:53:21;97378.06;;;25.43;45.45
31771;BME280;18343;50.152;8.182;2022-08-21T13:55:53;97374.19;;;25.44;44.10
31771;BME280;18343;50.152;8.182;2022-08-21T13:58:28;97370.31;;;25.45;44.47